TOTEM BAY KUPREANOF ISLAND RAWS NEAR PE HADS current weather conditions

sailwx.info

Wind from 108 at 9 knots gusting 18

Air temperature 11.1° C
Dewpoint 1.9° C

Last reported at 2017-Apr-30 21:55 UTC.
Time now 2017-Apr-30 22:33 UTC

Location: N 56°18' W 132°51'.
View on Google Maps.

See reports from other nearby stations

  
Tides and Currents Weather Stations Pressure Air Temp Water Temp Dewpoint Dewpoint Depression Visibility Wind Speed Wind Dir Waves Ship Positions
date/time (UTC)wind fromknots sea level pressurealtimeterstation pressurevisibilityair tempwater tempwave heightnotes
2017-Apr-30 21:55 108 9 gusting 18 11.1
2017-Apr-30 20:55 110 8 gusting 16 10.0
2017-Apr-30 19:55 111 8 gusting 14 10.0
2017-Apr-30 18:55 094 5 gusting 11 8.9
2017-Apr-30 17:55 114 4 gusting 6 6.7
2017-Apr-30 16:55 107 2 gusting 6 6.7
2017-Apr-30 15:55 150 2 gusting 5 5.6
2017-Apr-30 14:55 170 1 gusting 3 5.0
2017-Apr-30 13:55 117 0 gusting 4 4.4
2017-Apr-30 12:55 174 2 gusting 3 4.4
2017-Apr-30 11:55 302 1 gusting 2 5.6
2017-Apr-30 10:55 351 5.0
2017-Apr-30 09:55 211 4.4
2017-Apr-30 08:55 355 1 gusting 4 5.0
2017-Apr-30 07:55 347 2 gusting 6 5.0
2017-Apr-30 06:55 335 4 gusting 7 5.6
2017-Apr-30 05:55 344 6 gusting 12 5.6
2017-Apr-30 04:55 355 6 gusting 10 5.6
2017-Apr-30 03:55 347 6 gusting 12 6.1
2017-Apr-30 02:55 010 4 gusting 15 6.7
2017-Apr-30 01:55 001 7 gusting 17 7.8
2017-Apr-30 00:55 356 6 gusting 19 8.3
2017-Apr-29 23:55 338 5 gusting 17 8.9
2017-Apr-29 22:55 353 12 gusting 21 8.3
2017-Apr-29 21:55 329 6 gusting 15 8.9
2017-Apr-29 20:55 346 10 gusting 18 8.3
2017-Apr-29 19:55 336 7 gusting 13 7.8
2017-Apr-29 18:55 329 6 gusting 17 6.7
2017-Apr-29 17:55 350 6 gusting 13 7.2
2017-Apr-29 16:55 358 7 gusting 13 6.7
2017-Apr-29 15:55 353 6 gusting 12 6.1
2017-Apr-29 14:55 354 4 gusting 8 4.4
2017-Apr-29 13:55 352 3 gusting 12 3.3
2017-Apr-29 12:55 336 6 gusting 10 2.8
2017-Apr-29 11:55 327 5 gusting 8 3.3
2017-Apr-29 10:55 327 5 gusting 7 3.3
2017-Apr-29 09:55 331 4 gusting 8 3.3
2017-Apr-29 08:55 323 5 gusting 8 3.9
2017-Apr-29 07:55 345 4 gusting 6 3.3
2017-Apr-29 06:55 326 3 gusting 6 4.4
2017-Apr-29 05:55 338 4 gusting 6 4.4
2017-Apr-29 04:55 341 3 gusting 6 4.4
2017-Apr-29 03:55 297 0 gusting 6 5.6
2017-Apr-29 02:55 158 3 gusting 6 7.2
2017-Apr-29 01:55 141 3 gusting 10 8.3
2017-Apr-29 00:55 157 5 gusting 12 10.0
2017-Apr-28 23:55 153 7 gusting 13 9.4
2017-Apr-28 22:55 144 6 gusting 12 10.0